Boaz, Wisconsin
Current Conditions -  °F | °C
As of 4:56 PM on Tuesday 25 Nov 2014 (Local Time) from KLNR Reporting Station
Clear Clear  
Wind Chill: 10°   Ceiling: Unl
Heat Index: 17°   Visibility: 10mi
Dew Point: 11°   Wind: 5mph
Humidity: 77%   Direction: 170°S
Pressure: 30.11"   Gusts: NA
Location:  43.4015°N, 90.4109°W
Report Text: KLNR 252256Z AUTO 17004KT 10SM CLR M08/M12 A3011 RMK AO2 SLP203 T10831117
Loading
Personal Weather Stations






























Interactive Weather Map New forecast layout! Learn more

10-Day Weather Forecast

Advertisements
Track Severe Weather on mobile